createdAt,value
2019-03-29T04:09:01.151Z,0.1
2019-03-29T04:11:01.296Z,0.2
2019-03-29T04:12:01.106Z,0.3
2019-03-29T04:14:01.209Z,0.4
2019-03-29T04:15:02.057Z,0.5
2019-03-29T04:17:01.114Z,0.7
2019-03-29T04:18:01.283Z,0.8
2019-03-29T04:19:01.144Z,0.9
2019-03-29T04:20:01.103Z,1.1
2019-03-29T04:21:01.288Z,1.3
2019-03-29T04:22:01.116Z,1.6
2019-03-29T04:23:01.122Z,1.9
2019-03-29T04:24:01.151Z,2.2
2019-03-29T04:25:01.128Z,2.5
2019-03-29T04:26:01.262Z,2.9
2019-03-29T04:27:01.117Z,3.4
2019-03-29T04:28:01.120Z,4.0
2019-03-29T04:29:04.511Z,4.8
2019-03-29T04:30:01.116Z,5.7
2019-03-29T04:31:01.260Z,6.8
2019-03-29T04:32:01.127Z,8.0
2019-03-29T04:33:01.115Z,9.4
2019-03-29T04:34:01.147Z,11.1
2019-03-29T04:35:01.115Z,13.0
2019-03-29T04:36:01.292Z,15.3
2019-03-29T04:37:01.119Z,18.1
2019-03-29T04:38:01.118Z,21.3
2019-03-29T04:39:01.155Z,25.1
2019-03-29T04:40:07.357Z,29.7
2019-03-29T04:41:01.245Z,35.2
2019-03-29T04:42:01.117Z,41.7
2019-03-29T04:43:01.117Z,49.3
2019-03-29T04:44:06.123Z,58.2
2019-03-29T04:45:01.127Z,68.5
2019-03-29T04:46:01.264Z,80.3
2019-03-29T04:47:01.124Z,94.1
2019-03-29T04:49:01.176Z,113.0
2019-03-29T04:50:01.106Z,134.6
2019-03-29T04:51:01.257Z,158.8
2019-03-29T04:52:01.099Z,185.6
2019-03-29T04:53:01.104Z,215.2
2019-03-29T04:54:01.139Z,248.1
2019-03-29T04:55:01.113Z,285.3
2019-03-29T04:56:01.315Z,327.5
2019-03-29T04:57:01.107Z,375.0
2019-03-29T04:58:01.110Z,426.8
2019-03-29T04:59:01.145Z,481.6
2019-03-29T05:00:01.113Z,538.9
2019-03-29T05:01:01.261Z,600.2
2019-03-29T05:02:01.106Z,665.9
2019-03-29T05:03:01.105Z,735.9
2019-03-29T05:04:06.182Z,809.3
2019-03-29T05:05:01.105Z,886.9
2019-03-29T05:06:01.263Z,968.5
2019-03-29T05:07:01.113Z,1055.0
2019-03-29T05:08:01.107Z,1148.3
2019-03-29T05:09:01.143Z,1248.8
2019-03-29T05:10:01.107Z,1352.6
2019-03-29T05:11:01.253Z,1460.8
2019-03-29T05:12:01.103Z,1572.6
2019-03-29T05:13:01.110Z,1690.4
2019-03-29T05:14:01.144Z,1812.3
2019-03-29T05:15:01.110Z,1936.0
2019-03-29T05:16:01.248Z,2057.7
2019-03-29T05:17:01.107Z,2179.0
2019-03-29T05:18:01.106Z,2303.1
2019-03-29T05:19:06.115Z,2430.3
2019-03-29T05:20:01.107Z,2566.3
2019-03-29T05:21:01.324Z,2709.3
2019-03-29T05:22:01.111Z,2848.5
2019-03-29T05:23:01.100Z,2977.3
2019-03-29T05:24:01.142Z,3099.2
2019-03-29T05:25:01.112Z,3220.1
2019-03-29T05:26:01.260Z,3338.9
2019-03-29T05:27:01.102Z,3462.8
2019-03-29T05:28:01.098Z,3597.7
2019-03-29T05:29:01.151Z,3746.1
2019-03-29T05:30:01.109Z,3912.5
2019-03-29T05:31:01.257Z,4095.7
2019-03-29T05:32:01.190Z,4281.6
2019-03-29T05:33:01.111Z,4474.9
2019-03-29T05:34:01.139Z,4682.6
2019-03-29T05:35:01.107Z,4897.5
2019-03-29T05:36:01.288Z,5122.0
2019-03-29T05:37:01.106Z,5367.2
2019-03-29T05:38:01.102Z,5645.7
2019-03-29T05:39:01.147Z,5959.0
2019-03-29T05:40:01.117Z,6312.5
2019-03-29T05:41:01.265Z,6706.1
2019-03-29T05:42:01.110Z,7120.4
2019-03-29T05:43:01.113Z,7549.0
2019-03-29T05:44:01.147Z,7999.2
2019-03-29T05:45:01.117Z,8461.9
2019-03-29T05:46:01.260Z,8927.4
2019-03-29T05:47:01.079Z,9384.9
2019-03-29T05:48:01.116Z,9806.6
2019-03-29T05:49:01.151Z,10212.3
2019-03-29T05:50:01.110Z,10622.1
2019-03-29T05:51:01.261Z,11006.7
2019-03-29T05:52:01.120Z,11363.2
2019-03-29T05:53:01.112Z,11700.9
2019-03-29T05:54:01.151Z,12022.7
2019-03-29T05:55:01.117Z,12320.2
2019-03-29T05:56:01.266Z,12605.4
2019-03-29T05:58:01.094Z,13006.2
2019-03-29T05:59:01.130Z,13429.6
2019-03-29T06:00:01.105Z,13848.0
2019-03-29T06:01:01.104Z,14271.5
2019-03-29T06:02:01.761Z,14711.1
2019-03-29T06:03:01.105Z,15169.5
2019-03-29T06:04:01.131Z,15663.5
2019-03-29T06:05:01.173Z,16187.7
2019-03-29T06:06:01.107Z,16753.0
2019-03-29T06:07:01.263Z,17355.8
2019-03-29T06:08:01.100Z,17982.1
2019-03-29T06:09:01.107Z,18647.9
2019-03-29T06:10:01.107Z,19318.3
2019-03-29T06:11:01.105Z,20031.4
2019-03-29T06:12:01.287Z,20706.7
2019-03-29T06:13:01.107Z,21207.1
2019-03-29T06:14:01.106Z,21640.8
2019-03-29T06:15:01.110Z,22040.3
2019-03-29T06:16:01.099Z,22443.9
2019-03-29T06:17:01.328Z,22881.5
2019-03-29T06:18:01.105Z,23340.7
2019-03-29T06:19:01.105Z,23781.0
2019-03-29T06:20:01.106Z,24195.9
2019-03-29T06:21:01.101Z,24577.0
2019-03-29T06:22:01.293Z,24934.2
2019-03-29T06:23:01.107Z,25314.1
2019-03-29T06:24:01.103Z,25646.7
2019-03-29T06:25:01.100Z,25938.0
2019-03-29T06:26:01.074Z,26170.7
2019-03-29T06:27:01.340Z,26447.2
2019-03-29T06:28:01.117Z,26754.7
2019-03-29T06:29:01.103Z,27092.8
2019-03-29T06:30:02.003Z,27433.5
2019-03-29T06:31:06.087Z,27757.3
2019-03-29T06:32:01.256Z,28086.1
2019-03-29T06:33:01.113Z,28400.3
2019-03-29T06:34:01.114Z,28734.3
2019-03-29T06:35:01.110Z,29089.1
2019-03-29T06:36:06.114Z,29490.1
2019-03-29T06:37:01.285Z,29968.4
2019-03-29T06:38:01.113Z,30483.0
2019-03-29T06:39:01.113Z,31089.6
2019-03-29T06:40:01.116Z,31807.7
2019-03-29T06:41:06.124Z,32650.7
2019-03-29T06:42:01.257Z,33545.4
2019-03-29T06:43:01.114Z,34442.5
2019-03-29T06:44:01.120Z,35350.8
2019-03-29T06:45:01.109Z,36383.2
2019-03-29T06:46:06.131Z,37535.1
2019-03-29T06:47:01.264Z,38673.3
2019-03-29T06:48:01.117Z,39795.3
2019-03-29T06:49:01.109Z,40875.3
2019-03-29T06:50:01.114Z,41900.5
2019-03-29T06:51:01.153Z,42867.5
2019-03-29T06:52:01.262Z,43702.0
2019-03-29T06:53:01.114Z,44493.6
2019-03-29T06:55:01.097Z,45344.2
2019-03-29T06:56:02.398Z,46019.1
2019-03-29T06:57:01.252Z,46569.4
2019-03-29T06:58:01.106Z,47073.5
2019-03-29T06:59:01.136Z,47665.9
2019-03-29T07:00:01.114Z,48223.4
2019-03-29T07:01:01.109Z,48610.9
2019-03-29T07:02:01.254Z,48872.4
2019-03-29T07:03:01.106Z,49083.6
2019-03-29T07:04:01.111Z,49349.7
2019-03-29T07:05:01.101Z,49770.3
2019-03-29T07:06:01.108Z,50298.7
2019-03-29T07:07:01.294Z,50791.0
2019-03-29T07:08:01.107Z,51375.2
2019-03-29T07:09:01.107Z,51902.9
2019-03-29T07:10:01.106Z,52199.7
2019-03-29T07:11:01.100Z,52544.1
2019-03-29T07:12:01.275Z,52777.7
2019-03-29T07:13:01.111Z,52878.5
2019-03-29T07:14:01.109Z,52887.3
2019-03-29T07:15:01.108Z,52811.1
2019-03-29T07:16:01.074Z,52759.1
2019-03-29T07:17:01.293Z,52738.2
2019-03-29T07:18:01.109Z,52686.2
2019-03-29T07:19:02.169Z,52571.9
2019-03-29T07:20:01.120Z,52288.7
2019-03-29T07:21:01.118Z,51781.1
2019-03-29T07:22:01.356Z,51178.0
2019-03-29T07:23:01.106Z,50499.9
2019-03-29T07:24:01.122Z,49897.2
2019-03-29T07:25:01.112Z,49373.5
2019-03-29T07:26:01.117Z,48885.7
2019-03-29T07:27:01.407Z,48566.3
2019-03-29T07:28:01.112Z,48404.3
2019-03-29T07:29:01.129Z,48276.9
2019-03-29T07:31:01.095Z,48305.5
2019-03-29T07:32:01.279Z,48373.2
2019-03-29T07:33:01.095Z,48419.5
2019-03-29T07:34:01.096Z,48502.5
2019-03-29T07:35:01.099Z,48619.1
2019-03-29T07:36:01.101Z,48876.7
2019-03-29T07:37:01.375Z,49333.5
2019-03-29T07:38:01.107Z,49999.8
2019-03-29T07:39:01.114Z,50776.8
2019-03-29T07:40:01.107Z,51541.7
2019-03-29T07:41:01.104Z,52392.1
2019-03-29T07:42:01.279Z,53406.7
2019-03-29T07:43:01.102Z,54526.4
2019-03-29T07:44:01.098Z,55633.2
2019-03-29T07:45:01.100Z,56719.3
2019-03-29T07:46:01.100Z,57734.6
2019-03-29T07:47:01.292Z,58726.0
2019-03-29T07:48:01.107Z,59685.5
2019-03-29T07:49:01.107Z,60625.0
2019-03-29T07:50:01.104Z,61528.3
2019-03-29T07:51:01.114Z,62329.6
2019-03-29T07:52:01.275Z,63067.7
2019-03-29T07:53:06.108Z,63705.3
2019-03-29T07:54:01.106Z,64258.3
2019-03-29T07:55:01.106Z,64768.1
2019-03-29T07:56:01.182Z,65187.3
2019-03-29T07:57:01.308Z,65436.4
2019-03-29T07:58:01.135Z,65515.2
2019-03-29T07:59:01.103Z,65535.0
2019-03-29T08:00:01.110Z,65535.0
2019-03-29T08:15:01.400Z,65535.0
2019-03-29T08:30:06.116Z,65535.0
2019-03-29T08:45:01.207Z,65535.0
2019-03-29T09:00:06.129Z,65535.0
2019-03-29T09:15:06.109Z,65535.0
2019-03-29T09:30:06.127Z,65535.0
2019-03-29T09:45:01.410Z,65535.0
2019-03-29T10:00:01.456Z,65535.0
2019-03-29T10:15:01.117Z,65535.0
2019-03-29T10:30:01.123Z,65535.0
2019-03-29T10:45:01.113Z,65535.0
2019-03-29T11:00:01.118Z,65535.0
2019-03-29T11:15:01.098Z,65535.0
2019-03-29T11:30:01.906Z,65535.0
2019-03-29T11:45:01.108Z,65535.0
2019-03-29T12:00:11.125Z,65535.0
2019-03-29T12:15:01.143Z,65535.0
2019-03-29T12:30:01.379Z,65535.0
2019-03-29T12:45:01.452Z,65535.0
2019-03-29T13:00:01.125Z,65535.0
2019-03-29T13:15:01.381Z,65535.0
2019-03-29T13:30:01.432Z,65535.0
2019-03-29T13:45:01.357Z,65535.0
2019-03-29T14:00:01.340Z,65535.0
2019-03-29T14:15:02.006Z,65535.0
2019-03-29T14:30:04.498Z,65535.0
2019-03-29T14:45:01.388Z,65535.0
2019-03-29T15:00:01.250Z,65535.0
2019-03-29T15:15:06.198Z,65535.0
2019-03-29T15:30:01.256Z,65535.0
2019-03-29T15:45:01.413Z,65535.0
2019-03-29T16:00:01.370Z,65535.0
2019-03-29T16:01:01.100Z,65507.6
2019-03-29T16:02:01.096Z,65352.9
2019-03-29T16:03:01.102Z,65117.6
2019-03-29T16:04:01.113Z,64801.9
2019-03-29T16:05:01.315Z,64400.9
2019-03-29T16:06:01.109Z,63932.7
2019-03-29T16:07:01.099Z,63361.3
2019-03-29T16:08:01.102Z,62655.5
2019-03-29T16:09:01.107Z,61809.8
2019-03-29T16:10:01.328Z,60910.5
2019-03-29T16:11:01.102Z,59851.9
2019-03-29T16:12:01.097Z,58673.7
2019-03-29T16:13:01.098Z,57558.7
2019-03-29T16:14:01.093Z,56534.1
2019-03-29T16:15:01.242Z,55512.7
2019-03-29T16:16:01.070Z,54483.5
2019-03-29T16:17:01.104Z,53513.3
2019-03-29T16:18:01.095Z,52488.9
2019-03-29T16:19:01.068Z,51463.3
2019-03-29T16:20:01.259Z,50444.3
2019-03-29T16:21:01.103Z,49422.4
2019-03-29T16:22:01.104Z,48463.7
2019-03-29T16:23:01.106Z,47597.9
2019-03-29T16:24:01.098Z,46854.7
2019-03-29T16:25:01.262Z,46135.1
2019-03-29T16:26:01.105Z,45521.1
2019-03-29T16:27:01.105Z,44970.5
2019-03-29T16:28:01.104Z,44299.6
2019-03-29T16:29:01.108Z,43482.4
2019-03-29T16:30:01.258Z,42618.8
2019-03-29T16:31:01.102Z,41737.4
2019-03-29T16:32:01.111Z,40852.8
2019-03-29T16:33:01.106Z,40036.6
2019-03-29T16:34:01.108Z,39250.9
2019-03-29T16:35:01.284Z,38505.5
2019-03-29T16:36:01.109Z,37794.1
2019-03-29T16:37:01.114Z,37086.5
2019-03-29T16:38:01.104Z,36381.9
2019-03-29T16:39:01.111Z,35674.2
2019-03-29T16:40:01.285Z,34979.7
2019-03-29T16:41:01.111Z,34312.7
2019-03-29T16:42:01.106Z,33662.6
2019-03-29T16:43:01.105Z,33031.9
2019-03-29T16:44:01.106Z,32426.1
2019-03-29T16:45:01.267Z,31843.5
2019-03-29T16:46:01.116Z,31308.1
2019-03-29T16:47:01.076Z,30829.6
2019-03-29T16:49:01.089Z,30347.5
2019-03-29T16:50:01.316Z,29884.4
2019-03-29T16:51:01.096Z,29424.9
2019-03-29T16:52:01.102Z,28968.3
2019-03-29T16:53:01.101Z,28530.1
2019-03-29T16:54:01.099Z,28134.9
2019-03-29T16:55:12.223Z,27753.4
2019-03-29T16:56:01.097Z,27392.2
2019-03-29T16:57:01.098Z,27051.3
2019-03-29T16:58:01.097Z,26732.1
2019-03-29T16:59:01.092Z,26435.4
2019-03-29T17:00:02.428Z,26139.3
2019-03-29T17:01:01.103Z,25825.3
2019-03-29T17:02:01.100Z,25479.0
2019-03-29T17:03:01.102Z,25113.4
2019-03-29T17:04:01.097Z,24792.7
2019-03-29T17:05:01.247Z,24476.9
2019-03-29T17:06:01.118Z,24161.1
2019-03-29T17:07:01.100Z,23848.3
2019-03-29T17:08:01.107Z,23534.5
2019-03-29T17:09:01.098Z,23203.2
2019-03-29T17:10:01.319Z,22857.7
2019-03-29T17:11:01.107Z,22480.3
2019-03-29T17:12:01.115Z,22075.5
2019-03-29T17:13:01.197Z,21650.5
2019-03-29T17:14:01.113Z,21209.1
2019-03-29T17:15:01.265Z,20770.1
2019-03-29T17:16:02.295Z,20339.5
2019-03-29T17:17:01.104Z,19911.7
2019-03-29T17:18:01.070Z,19484.7
2019-03-29T17:20:01.249Z,19020.1
2019-03-29T17:21:01.295Z,18549.7
2019-03-29T17:22:01.094Z,18084.3
2019-03-29T17:23:01.101Z,17618.3
2019-03-29T17:24:01.091Z,17141.3
2019-03-29T17:25:01.248Z,16645.7
2019-03-29T17:26:01.100Z,16136.9
2019-03-29T17:27:01.105Z,15624.3
2019-03-29T17:28:01.195Z,15115.0
2019-03-29T17:29:01.092Z,14614.2
2019-03-29T17:30:01.284Z,14114.9
2019-03-29T17:31:01.101Z,13612.5
2019-03-29T17:32:01.094Z,13109.5
2019-03-29T17:33:01.095Z,12613.1
2019-03-29T17:34:01.097Z,12122.5
2019-03-29T17:35:01.272Z,11667.2
2019-03-29T17:36:01.099Z,11216.2
2019-03-29T17:37:01.094Z,10766.3
2019-03-29T17:38:01.826Z,10319.8
2019-03-29T17:39:01.091Z,9877.3
2019-03-29T17:40:01.309Z,9440.3
2019-03-29T17:41:01.095Z,9012.5
2019-03-29T17:42:06.100Z,8593.5
2019-03-29T17:43:01.107Z,8181.3
2019-03-29T17:44:01.099Z,7775.5
2019-03-29T17:45:01.255Z,7377.8
2019-03-29T17:46:15.065Z,6989.7
2019-03-29T17:47:06.114Z,6611.3
2019-03-29T17:48:01.092Z,6241.7
2019-03-29T17:49:01.096Z,5880.2
2019-03-29T17:50:01.326Z,5528.3
2019-03-29T17:51:01.130Z,5188.8
2019-03-29T17:52:01.131Z,4862.5
2019-03-29T17:53:01.100Z,4548.4
2019-03-29T17:54:01.103Z,4246.3
2019-03-29T17:55:01.275Z,3956.7
2019-03-29T17:56:01.102Z,3679.2
2019-03-29T17:57:01.103Z,3413.5
2019-03-29T17:58:01.109Z,3159.9
2019-03-29T17:59:06.117Z,2918.6
2019-03-29T18:00:01.325Z,2689.6
2019-03-29T18:01:01.106Z,2472.9
2019-03-29T18:02:09.017Z,2268.2
2019-03-29T18:03:01.111Z,2075.5
2019-03-29T18:04:01.138Z,1894.1
2019-03-29T18:05:06.287Z,1723.2
2019-03-29T18:06:01.872Z,1562.3
2019-03-29T18:07:01.108Z,1410.8
2019-03-29T18:08:01.108Z,1268.7
2019-03-29T18:09:01.106Z,1136.1
2019-03-29T18:10:01.254Z,1013.5
2019-03-29T18:11:01.105Z,901.1
2019-03-29T18:12:01.109Z,798.2
2019-03-29T18:13:01.105Z,703.9
2019-03-29T18:14:01.104Z,617.7
2019-03-29T18:15:01.294Z,539.4
2019-03-29T18:16:01.113Z,468.5
2019-03-29T18:17:01.103Z,404.7
2019-03-29T18:18:01.133Z,347.9
2019-03-29T18:19:01.098Z,297.7
2019-03-29T18:20:01.286Z,254.1
2019-03-29T18:21:01.111Z,216.3
2019-03-29T18:22:01.118Z,184.0
2019-03-29T18:24:01.686Z,156.5
2019-03-29T18:25:02.344Z,133.1
2019-03-29T18:26:01.098Z,112.9
2019-03-29T18:27:01.099Z,95.1
2019-03-29T18:28:01.098Z,79.3
2019-03-29T18:29:01.097Z,65.9
2019-03-29T18:30:01.276Z,54.8
2019-03-29T18:31:01.094Z,45.5
2019-03-29T18:32:01.160Z,37.8
2019-03-29T18:33:01.103Z,31.3
2019-03-29T18:34:01.093Z,25.9
2019-03-29T18:35:01.239Z,21.5
2019-03-29T18:36:01.106Z,17.7
2019-03-29T18:37:01.096Z,14.5
2019-03-29T18:38:01.096Z,11.9
2019-03-29T18:39:01.091Z,10.1
2019-03-29T18:40:01.331Z,8.5
2019-03-29T18:41:01.100Z,7.3
2019-03-29T18:42:01.110Z,6.2
2019-03-29T18:43:01.106Z,5.3
2019-03-29T18:44:01.107Z,4.5
2019-03-29T18:45:01.295Z,3.8
2019-03-29T18:46:01.106Z,3.3
2019-03-29T18:47:01.182Z,2.8
2019-03-29T18:48:01.117Z,2.4
2019-03-29T18:49:01.109Z,2.1
2019-03-29T18:51:01.091Z,1.7
2019-03-29T18:52:01.098Z,1.5
2019-03-29T18:53:02.161Z,1.3
2019-03-29T18:54:01.099Z,1.1
2019-03-29T18:55:01.315Z,0.9
2019-03-29T18:56:01.092Z,0.7
2019-03-29T18:57:01.102Z,0.6
2019-03-29T18:58:01.099Z,0.5
2019-03-29T18:59:01.097Z,0.4
2019-03-29T19:00:01.241Z,0.3
2019-03-29T19:02:01.121Z,0.2
2019-03-29T19:03:01.090Z,0.1
